Главная страница
METAR-TAF:

METAR-TAF

Аэропорты :

Ивало, Финляндия

широта: 68-37N, долгота: 027-25E, высота над уровнем моря: 147 м

Текущие метеонаблюдения

Эта сводка был подготовлена 21 минут назад, в 02:50 UTC
Ветер 9 Узел переменных направлений
Температура 15°C
Влажность 82%
Давление 1008 hPa
Видимость 10 км и более
Сплошная облачность на высоте 1400 фута

METAR: EFIV 170250Z AUTO VRB09KT 9999 OVC014 15/12 Q1008

Время: 06:11 (03:11 UTC)

Прогноз

Эта сводка был подготовлена 21 часа и 50 минут назад, в 05:21 UTC
Прогноз действительный с 16-го 06 UTC до 16-го 10 UTC
Ветер 5 Узел от южный
Видимость 10 км и более
Нет облачности ниже 1500 м, и нет кучево-дождевой облачности

TAF: EFIV 160521Z 1606/1610 18005KT CAVOK

Метеонаблюдения и прогнозы для более 4000 аэропортов (сводки METAR и TAF).

Имеющиеся станции представлены на карте желтыми и красными точками.

Чтобы увидеть название станции, наведите на нее мышь.

Затем щелкните, чтобы увидеть метеонаблюдения и метеопрогнозы.

Управление картой: чтобы увеличить масштаб, щелкните зеленые кнопки с черным крестиком; чтобы уменьшить масштаб, щелкните зеленую кнопку с тире; для просмотра соседних карт щелкайте зеленые стрелки.


METAR-TAF: